sensor_id;sensor_type;location;lat;lon;timestamp;P1;durP1;ratioP1;P2;durP2;ratioP2
31966;SDS011;18496;52.042;6.812;2022-12-18T00:00:35;78.53;;;31.77;;
31966;SDS011;18496;52.042;6.812;2022-12-18T00:02:45;70.47;;;27.20;;
31966;SDS011;18496;52.042;6.812;2022-12-18T00:04:49;79.28;;;29.40;;
31966;SDS011;18496;52.042;6.812;2022-12-18T00:06:53;83.38;;;31.58;;
31966;SDS011;18496;52.042;6.812;2022-12-18T00:08:57;85.25;;;29.70;;
31966;SDS011;18496;52.042;6.812;2022-12-18T00:11:03;88.05;;;29.30;;
31966;SDS011;18496;52.042;6.812;2022-12-18T00:13:08;77.05;;;28.67;;
31966;SDS011;18496;52.042;6.812;2022-12-18T00:15:11;85.78;;;30.13;;
31966;SDS011;18496;52.042;6.812;2022-12-18T00:17:15;69.55;;;28.83;;
31966;SDS011;18496;52.042;6.812;2022-12-18T00:19:19;72.07;;;28.17;;
31966;SDS011;18496;52.042;6.812;2022-12-18T00:21:22;70.20;;;27.35;;
31966;SDS011;18496;52.042;6.812;2022-12-18T00:23:26;73.13;;;25.15;;
31966;SDS011;18496;52.042;6.812;2022-12-18T00:25:32;85.00;;;29.67;;
31966;SDS011;18496;52.042;6.812;2022-12-18T00:27:39;78.22;;;27.52;;
31966;SDS011;18496;52.042;6.812;2022-12-18T00:29:42;75.78;;;27.48;;
31966;SDS011;18496;52.042;6.812;2022-12-18T00:31:46;68.53;;;27.83;;
31966;SDS011;18496;52.042;6.812;2022-12-18T00:33:49;71.95;;;27.05;;
31966;SDS011;18496;52.042;6.812;2022-12-18T00:35:53;72.05;;;27.25;;
31966;SDS011;18496;52.042;6.812;2022-12-18T00:37:57;58.22;;;25.73;;
31966;SDS011;18496;52.042;6.812;2022-12-18T00:40:01;81.30;;;28.58;;
31966;SDS011;18496;52.042;6.812;2022-12-18T00:42:05;66.47;;;28.58;;
31966;SDS011;18496;52.042;6.812;2022-12-18T00:44:29;76.88;;;30.05;;
31966;SDS011;18496;52.042;6.812;2022-12-18T00:46:33;89.63;;;31.08;;
31966;SDS011;18496;52.042;6.812;2022-12-18T00:48:36;72.00;;;28.10;;
31966;SDS011;18496;52.042;6.812;2022-12-18T00:50:40;72.45;;;28.27;;
31966;SDS011;18496;52.042;6.812;2022-12-18T00:52:43;69.03;;;26.73;;
31966;SDS011;18496;52.042;6.812;2022-12-18T00:54:47;68.72;;;27.00;;
31966;SDS011;18496;52.042;6.812;2022-12-18T00:56:51;67.60;;;26.83;;
31966;SDS011;18496;52.042;6.812;2022-12-18T00:58:55;73.45;;;27.60;;
31966;SDS011;18496;52.042;6.812;2022-12-18T01:00:58;78.50;;;28.65;;
31966;SDS011;18496;52.042;6.812;2022-12-18T01:03:02;64.95;;;27.20;;
31966;SDS011;18496;52.042;6.812;2022-12-18T01:05:06;74.93;;;28.77;;
31966;SDS011;18496;52.042;6.812;2022-12-18T01:07:11;69.80;;;26.08;;
31966;SDS011;18496;52.042;6.812;2022-12-18T01:09:14;77.68;;;27.67;;
31966;SDS011;18496;52.042;6.812;2022-12-18T01:11:18;70.53;;;27.73;;
31966;SDS011;18496;52.042;6.812;2022-12-18T01:13:23;69.07;;;27.05;;
31966;SDS011;18496;52.042;6.812;2022-12-18T01:15:27;71.10;;;27.17;;
31966;SDS011;18496;52.042;6.812;2022-12-18T01:17:31;64.70;;;25.92;;
31966;SDS011;18496;52.042;6.812;2022-12-18T01:19:37;62.40;;;25.17;;
31966;SDS011;18496;52.042;6.812;2022-12-18T01:21:40;58.15;;;24.58;;
31966;SDS011;18496;52.042;6.812;2022-12-18T01:23:44;66.07;;;25.67;;
31966;SDS011;18496;52.042;6.812;2022-12-18T01:25:48;68.18;;;24.58;;
31966;SDS011;18496;52.042;6.812;2022-12-18T01:27:51;61.53;;;26.08;;
31966;SDS011;18496;52.042;6.812;2022-12-18T01:29:55;76.60;;;27.23;;
31966;SDS011;18496;52.042;6.812;2022-12-18T01:31:59;64.43;;;26.02;;
31966;SDS011;18496;52.042;6.812;2022-12-18T01:34:03;62.30;;;24.90;;
31966;SDS011;18496;52.042;6.812;2022-12-18T01:36:11;65.10;;;27.17;;
31966;SDS011;18496;52.042;6.812;2022-12-18T01:38:25;60.75;;;25.15;;
31966;SDS011;18496;52.042;6.812;2022-12-18T01:40:29;61.50;;;23.90;;
31966;SDS011;18496;52.042;6.812;2022-12-18T01:42:32;61.67;;;25.73;;
31966;SDS011;18496;52.042;6.812;2022-12-18T01:47:01;64.30;;;24.95;;
31966;SDS011;18496;52.042;6.812;2022-12-18T01:49:04;62.80;;;23.88;;
31966;SDS011;18496;52.042;6.812;2022-12-18T01:51:09;66.30;;;24.38;;
31966;SDS011;18496;52.042;6.812;2022-12-18T01:53:15;60.15;;;24.67;;
31966;SDS011;18496;52.042;6.812;2022-12-18T01:55:22;67.55;;;27.23;;
31966;SDS011;18496;52.042;6.812;2022-12-18T01:57:28;61.78;;;24.52;;
31966;SDS011;18496;52.042;6.812;2022-12-18T01:59:32;64.88;;;26.27;;
31966;SDS011;18496;52.042;6.812;2022-12-18T02:01:38;61.58;;;25.13;;
31966;SDS011;18496;52.042;6.812;2022-12-18T02:03:42;65.10;;;25.45;;
31966;SDS011;18496;52.042;6.812;2022-12-18T02:05:57;61.97;;;25.05;;
31966;SDS011;18496;52.042;6.812;2022-12-18T02:08:20;58.65;;;24.30;;
31966;SDS011;18496;52.042;6.812;2022-12-18T02:10:31;67.53;;;25.38;;
31966;SDS011;18496;52.042;6.812;2022-12-18T02:12:42;59.35;;;24.98;;
31966;SDS011;18496;52.042;6.812;2022-12-18T02:17:07;61.88;;;24.45;;
31966;SDS011;18496;52.042;6.812;2022-12-18T02:21:49;61.33;;;24.20;;
31966;SDS011;18496;52.042;6.812;2022-12-18T02:24:17;54.35;;;24.85;;
31966;SDS011;18496;52.042;6.812;2022-12-18T02:26:40;66.78;;;25.10;;
31966;SDS011;18496;52.042;6.812;2022-12-18T02:28:56;57.92;;;22.23;;
31966;SDS011;18496;52.042;6.812;2022-12-18T02:31:09;56.20;;;24.20;;
31966;SDS011;18496;52.042;6.812;2022-12-18T02:33:17;62.55;;;22.83;;
31966;SDS011;18496;52.042;6.812;2022-12-18T02:35:24;65.90;;;24.83;;
31966;SDS011;18496;52.042;6.812;2022-12-18T02:37:34;59.20;;;23.35;;
31966;SDS011;18496;52.042;6.812;2022-12-18T02:39:44;59.72;;;23.92;;
31966;SDS011;18496;52.042;6.812;2022-12-18T02:41:51;64.72;;;23.23;;
31966;SDS011;18496;52.042;6.812;2022-12-18T02:43:58;56.08;;;23.08;;
31966;SDS011;18496;52.042;6.812;2022-12-18T02:46:23;58.97;;;24.40;;
31966;SDS011;18496;52.042;6.812;2022-12-18T02:48:32;57.72;;;23.50;;
31966;SDS011;18496;52.042;6.812;2022-12-18T02:50:51;56.75;;;23.73;;
31966;SDS011;18496;52.042;6.812;2022-12-18T02:55:36;63.28;;;23.55;;
31966;SDS011;18496;52.042;6.812;2022-12-18T02:58:20;59.88;;;23.52;;
31966;SDS011;18496;52.042;6.812;2022-12-18T03:01:33;53.97;;;23.13;;
31966;SDS011;18496;52.042;6.812;2022-12-18T03:03:18;56.78;;;22.35;;
31966;SDS011;18496;52.042;6.812;2022-12-18T03:05:34;53.67;;;22.88;;
31966;SDS011;18496;52.042;6.812;2022-12-18T03:07:46;53.22;;;23.85;;
31966;SDS011;18496;52.042;6.812;2022-12-18T03:10:11;53.13;;;21.52;;
31966;SDS011;18496;52.042;6.812;2022-12-18T03:12:22;55.33;;;21.45;;
31966;SDS011;18496;52.042;6.812;2022-12-18T03:14:34;54.40;;;22.65;;
31966;SDS011;18496;52.042;6.812;2022-12-18T03:16:41;60.20;;;23.77;;
31966;SDS011;18496;52.042;6.812;2022-12-18T03:18:51;54.70;;;22.30;;
31966;SDS011;18496;52.042;6.812;2022-12-18T03:21:14;53.30;;;22.42;;
31966;SDS011;18496;52.042;6.812;2022-12-18T03:23:23;58.35;;;23.25;;
31966;SDS011;18496;52.042;6.812;2022-12-18T03:25:30;50.85;;;22.30;;
31966;SDS011;18496;52.042;6.812;2022-12-18T03:27:36;59.65;;;24.17;;
31966;SDS011;18496;52.042;6.812;2022-12-18T03:29:55;55.22;;;22.20;;
31966;SDS011;18496;52.042;6.812;2022-12-18T03:32:12;55.25;;;21.10;;
31966;SDS011;18496;52.042;6.812;2022-12-18T03:34:29;56.70;;;23.45;;
31966;SDS011;18496;52.042;6.812;2022-12-18T03:36:37;48.38;;;21.25;;
31966;SDS011;18496;52.042;6.812;2022-12-18T03:38:41;57.83;;;23.98;;
31966;SDS011;18496;52.042;6.812;2022-12-18T03:40:51;51.05;;;22.52;;
31966;SDS011;18496;52.042;6.812;2022-12-18T03:43:03;53.35;;;21.38;;
31966;SDS011;18496;52.042;6.812;2022-12-18T03:47:46;59.10;;;22.25;;
31966;SDS011;18496;52.042;6.812;2022-12-18T03:50:16;57.53;;;22.85;;
31966;SDS011;18496;52.042;6.812;2022-12-18T03:52:27;47.78;;;21.02;;
31966;SDS011;18496;52.042;6.812;2022-12-18T03:54:41;48.50;;;20.48;;
31966;SDS011;18496;52.042;6.812;2022-12-18T03:56:54;55.63;;;21.88;;
31966;SDS011;18496;52.042;6.812;2022-12-18T03:59:02;56.97;;;21.77;;
31966;SDS011;18496;52.042;6.812;2022-12-18T04:01:09;51.20;;;21.45;;
31966;SDS011;18496;52.042;6.812;2022-12-18T04:03:16;48.35;;;20.88;;
31966;SDS011;18496;52.042;6.812;2022-12-18T04:05:24;51.55;;;21.38;;
31966;SDS011;18496;52.042;6.812;2022-12-18T04:07:29;49.22;;;21.98;;
31966;SDS011;18496;52.042;6.812;2022-12-18T04:09:35;46.85;;;21.23;;
31966;SDS011;18496;52.042;6.812;2022-12-18T04:11:42;49.53;;;20.50;;
31966;SDS011;18496;52.042;6.812;2022-12-18T04:13:48;44.17;;;20.50;;
31966;SDS011;18496;52.042;6.812;2022-12-18T04:15:58;52.13;;;20.27;;
31966;SDS011;18496;52.042;6.812;2022-12-18T04:18:02;52.45;;;21.30;;
31966;SDS011;18496;52.042;6.812;2022-12-18T04:20:13;50.08;;;20.10;;
31966;SDS011;18496;52.042;6.812;2022-12-18T04:22:20;45.08;;;19.50;;
31966;SDS011;18496;52.042;6.812;2022-12-18T04:24:28;49.30;;;20.67;;
31966;SDS011;18496;52.042;6.812;2022-12-18T04:26:41;40.92;;;19.75;;
31966;SDS011;18496;52.042;6.812;2022-12-18T04:28:52;42.50;;;19.42;;
31966;SDS011;18496;52.042;6.812;2022-12-18T04:30:56;51.25;;;21.27;;
31966;SDS011;18496;52.042;6.812;2022-12-18T04:32:59;41.22;;;20.15;;
31966;SDS011;18496;52.042;6.812;2022-12-18T04:35:04;56.42;;;21.48;;
31966;SDS011;18496;52.042;6.812;2022-12-18T04:37:11;50.67;;;21.17;;
31966;SDS011;18496;52.042;6.812;2022-12-18T04:39:16;52.90;;;22.30;;
31966;SDS011;18496;52.042;6.812;2022-12-18T04:41:23;55.65;;;23.38;;
31966;SDS011;18496;52.042;6.812;2022-12-18T04:43:29;48.13;;;21.85;;
31966;SDS011;18496;52.042;6.812;2022-12-18T04:45:32;49.28;;;20.77;;
31966;SDS011;18496;52.042;6.812;2022-12-18T04:47:36;56.17;;;22.48;;
31966;SDS011;18496;52.042;6.812;2022-12-18T04:49:40;53.67;;;22.15;;
31966;SDS011;18496;52.042;6.812;2022-12-18T04:51:43;48.67;;;20.98;;
31966;SDS011;18496;52.042;6.812;2022-12-18T04:53:47;45.38;;;19.88;;
31966;SDS011;18496;52.042;6.812;2022-12-18T04:56:01;47.03;;;19.92;;
31966;SDS011;18496;52.042;6.812;2022-12-18T04:58:08;41.58;;;18.58;;
31966;SDS011;18496;52.042;6.812;2022-12-18T05:00:12;52.63;;;18.95;;
31966;SDS011;18496;52.042;6.812;2022-12-18T05:02:16;49.45;;;18.38;;
31966;SDS011;18496;52.042;6.812;2022-12-18T05:04:20;42.22;;;18.45;;
31966;SDS011;18496;52.042;6.812;2022-12-18T05:06:24;40.63;;;19.08;;
31966;SDS011;18496;52.042;6.812;2022-12-18T05:08:27;42.17;;;18.48;;
31966;SDS011;18496;52.042;6.812;2022-12-18T05:10:31;40.95;;;17.45;;
31966;SDS011;18496;52.042;6.812;2022-12-18T05:12:34;33.13;;;17.80;;
31966;SDS011;18496;52.042;6.812;2022-12-18T05:14:58;42.58;;;16.63;;
31966;SDS011;18496;52.042;6.812;2022-12-18T05:17:02;39.78;;;16.55;;
31966;SDS011;18496;52.042;6.812;2022-12-18T05:19:05;38.28;;;17.33;;
31966;SDS011;18496;52.042;6.812;2022-12-18T05:21:09;38.92;;;17.88;;
31966;SDS011;18496;52.042;6.812;2022-12-18T05:23:13;35.58;;;16.40;;
31966;SDS011;18496;52.042;6.812;2022-12-18T05:25:16;31.98;;;15.50;;
31966;SDS011;18496;52.042;6.812;2022-12-18T05:27:20;38.60;;;17.13;;
31966;SDS011;18496;52.042;6.812;2022-12-18T05:29:24;42.35;;;16.85;;
31966;SDS011;18496;52.042;6.812;2022-12-18T05:31:28;39.03;;;16.63;;
31966;SDS011;18496;52.042;6.812;2022-12-18T05:33:32;38.50;;;16.45;;
31966;SDS011;18496;52.042;6.812;2022-12-18T05:35:37;42.03;;;17.05;;
31966;SDS011;18496;52.042;6.812;2022-12-18T05:37:40;32.88;;;16.13;;
31966;SDS011;18496;52.042;6.812;2022-12-18T05:39:44;38.58;;;17.25;;
31966;SDS011;18496;52.042;6.812;2022-12-18T05:41:47;49.58;;;17.45;;
31966;SDS011;18496;52.042;6.812;2022-12-18T05:43:51;39.08;;;16.35;;
31966;SDS011;18496;52.042;6.812;2022-12-18T05:45:55;39.28;;;16.90;;
31966;SDS011;18496;52.042;6.812;2022-12-18T05:47:59;38.53;;;17.05;;
31966;SDS011;18496;52.042;6.812;2022-12-18T05:50:03;34.72;;;16.20;;
31966;SDS011;18496;52.042;6.812;2022-12-18T05:52:07;36.15;;;17.58;;
31966;SDS011;18496;52.042;6.812;2022-12-18T05:54:11;41.25;;;17.42;;
31966;SDS011;18496;52.042;6.812;2022-12-18T05:56:16;39.00;;;17.58;;
31966;SDS011;18496;52.042;6.812;2022-12-18T05:58:22;37.22;;;16.67;;
31966;SDS011;18496;52.042;6.812;2022-12-18T06:00:25;36.53;;;16.48;;
31966;SDS011;18496;52.042;6.812;2022-12-18T06:02:29;38.47;;;17.05;;
31966;SDS011;18496;52.042;6.812;2022-12-18T06:04:33;39.53;;;18.08;;
31966;SDS011;18496;52.042;6.812;2022-12-18T06:06:36;39.63;;;16.15;;
31966;SDS011;18496;52.042;6.812;2022-12-18T06:08:40;38.80;;;16.48;;
31966;SDS011;18496;52.042;6.812;2022-12-18T06:10:49;34.22;;;15.77;;
31966;SDS011;18496;52.042;6.812;2022-12-18T06:12:54;33.87;;;15.77;;
31966;SDS011;18496;52.042;6.812;2022-12-18T06:14:57;35.03;;;15.82;;
31966;SDS011;18496;52.042;6.812;2022-12-18T06:17:01;35.30;;;16.67;;
31966;SDS011;18496;52.042;6.812;2022-12-18T06:19:05;36.38;;;14.75;;
31966;SDS011;18496;52.042;6.812;2022-12-18T06:21:09;33.58;;;15.07;;
31966;SDS011;18496;52.042;6.812;2022-12-18T06:23:12;34.50;;;15.57;;
31966;SDS011;18496;52.042;6.812;2022-12-18T06:25:17;37.28;;;14.77;;
31966;SDS011;18496;52.042;6.812;2022-12-18T06:27:20;35.03;;;16.30;;
31966;SDS011;18496;52.042;6.812;2022-12-18T06:29:24;36.17;;;15.60;;
31966;SDS011;18496;52.042;6.812;2022-12-18T06:31:27;32.50;;;14.98;;
31966;SDS011;18496;52.042;6.812;2022-12-18T06:33:31;39.35;;;16.45;;
31966;SDS011;18496;52.042;6.812;2022-12-18T06:35:35;32.40;;;16.73;;
31966;SDS011;18496;52.042;6.812;2022-12-18T06:37:39;36.35;;;16.27;;
31966;SDS011;18496;52.042;6.812;2022-12-18T06:39:42;38.60;;;14.75;;
31966;SDS011;18496;52.042;6.812;2022-12-18T06:41:46;39.40;;;15.00;;
31966;SDS011;18496;52.042;6.812;2022-12-18T06:43:50;42.70;;;17.95;;
31966;SDS011;18496;52.042;6.812;2022-12-18T06:46:00;42.60;;;19.70;;
31966;SDS011;18496;52.042;6.812;2022-12-18T06:48:04;40.10;;;18.52;;
31966;SDS011;18496;52.042;6.812;2022-12-18T06:50:08;39.00;;;16.27;;
31966;SDS011;18496;52.042;6.812;2022-12-18T06:52:12;37.22;;;16.38;;
31966;SDS011;18496;52.042;6.812;2022-12-18T06:54:19;30.75;;;14.60;;
31966;SDS011;18496;52.042;6.812;2022-12-18T06:56:23;33.33;;;15.55;;
31966;SDS011;18496;52.042;6.812;2022-12-18T06:58:27;32.92;;;14.70;;
31966;SDS011;18496;52.042;6.812;2022-12-18T07:00:31;30.33;;;13.45;;
31966;SDS011;18496;52.042;6.812;2022-12-18T07:02:34;28.98;;;13.95;;
31966;SDS011;18496;52.042;6.812;2022-12-18T07:04:38;35.25;;;14.95;;
31966;SDS011;18496;52.042;6.812;2022-12-18T07:06:42;30.75;;;14.40;;
31966;SDS011;18496;52.042;6.812;2022-12-18T07:08:46;31.00;;;14.30;;
31966;SDS011;18496;52.042;6.812;2022-12-18T07:10:50;34.88;;;13.90;;
31966;SDS011;18496;52.042;6.812;2022-12-18T07:12:53;28.80;;;13.95;;
31966;SDS011;18496;52.042;6.812;2022-12-18T07:14:57;31.38;;;13.82;;
31966;SDS011;18496;52.042;6.812;2022-12-18T07:17:01;29.80;;;12.90;;
31966;SDS011;18496;52.042;6.812;2022-12-18T07:19:04;26.35;;;13.73;;
31966;SDS011;18496;52.042;6.812;2022-12-18T07:21:09;29.20;;;13.57;;
31966;SDS011;18496;52.042;6.812;2022-12-18T07:23:14;28.33;;;12.95;;
31966;SDS011;18496;52.042;6.812;2022-12-18T07:25:18;31.25;;;13.30;;
31966;SDS011;18496;52.042;6.812;2022-12-18T07:27:22;29.63;;;12.80;;
31966;SDS011;18496;52.042;6.812;2022-12-18T07:29:25;26.65;;;13.70;;
31966;SDS011;18496;52.042;6.812;2022-12-18T07:31:29;29.08;;;13.70;;
31966;SDS011;18496;52.042;6.812;2022-12-18T07:33:33;34.75;;;15.30;;
31966;SDS011;18496;52.042;6.812;2022-12-18T07:35:37;32.50;;;14.75;;
31966;SDS011;18496;52.042;6.812;2022-12-18T07:37:41;38.42;;;15.25;;
31966;SDS011;18496;52.042;6.812;2022-12-18T07:39:45;30.80;;;14.23;;
31966;SDS011;18496;52.042;6.812;2022-12-18T07:41:48;29.50;;;14.63;;
31966;SDS011;18496;52.042;6.812;2022-12-18T07:44:12;41.97;;;18.65;;
31966;SDS011;18496;52.042;6.812;2022-12-18T07:46:16;37.60;;;17.33;;
31966;SDS011;18496;52.042;6.812;2022-12-18T07:48:20;33.72;;;15.48;;
31966;SDS011;18496;52.042;6.812;2022-12-18T07:50:24;36.00;;;16.70;;
31966;SDS011;18496;52.042;6.812;2022-12-18T07:52:27;41.25;;;17.13;;
31966;SDS011;18496;52.042;6.812;2022-12-18T07:54:31;29.55;;;14.45;;
31966;SDS011;18496;52.042;6.812;2022-12-18T07:56:34;31.13;;;14.65;;
31966;SDS011;18496;52.042;6.812;2022-12-18T07:58:38;39.53;;;17.88;;
31966;SDS011;18496;52.042;6.812;2022-12-18T08:00:42;38.45;;;15.02;;
31966;SDS011;18496;52.042;6.812;2022-12-18T08:02:45;39.28;;;17.23;;
31966;SDS011;18496;52.042;6.812;2022-12-18T08:04:49;33.60;;;15.10;;
31966;SDS011;18496;52.042;6.812;2022-12-18T08:06:52;32.08;;;14.45;;
31966;SDS011;18496;52.042;6.812;2022-12-18T08:08:56;38.42;;;16.63;;
31966;SDS011;18496;52.042;6.812;2022-12-18T08:11:00;38.88;;;15.32;;
31966;SDS011;18496;52.042;6.812;2022-12-18T08:13:04;42.88;;;18.55;;
31966;SDS011;18496;52.042;6.812;2022-12-18T08:15:07;32.03;;;15.65;;
31966;SDS011;18496;52.042;6.812;2022-12-18T08:17:12;33.10;;;17.00;;
31966;SDS011;18496;52.042;6.812;2022-12-18T08:19:15;33.85;;;16.23;;
31966;SDS011;18496;52.042;6.812;2022-12-18T08:21:20;38.28;;;15.27;;
31966;SDS011;18496;52.042;6.812;2022-12-18T08:23:25;35.13;;;16.33;;
31966;SDS011;18496;52.042;6.812;2022-12-18T08:25:32;34.72;;;16.45;;
31966;SDS011;18496;52.042;6.812;2022-12-18T08:27:37;36.40;;;15.82;;
31966;SDS011;18496;52.042;6.812;2022-12-18T08:29:40;32.22;;;13.88;;
31966;SDS011;18496;52.042;6.812;2022-12-18T08:31:44;35.35;;;14.55;;
31966;SDS011;18496;52.042;6.812;2022-12-18T08:33:51;31.67;;;15.45;;
31966;SDS011;18496;52.042;6.812;2022-12-18T08:35:55;40.85;;;16.42;;
31966;SDS011;18496;52.042;6.812;2022-12-18T08:38:00;41.08;;;17.65;;
31966;SDS011;18496;52.042;6.812;2022-12-18T08:40:04;35.70;;;15.57;;
31966;SDS011;18496;52.042;6.812;2022-12-18T08:42:09;45.58;;;17.02;;
31966;SDS011;18496;52.042;6.812;2022-12-18T08:44:31;35.00;;;15.82;;
31966;SDS011;18496;52.042;6.812;2022-12-18T08:46:41;44.42;;;18.10;;
31966;SDS011;18496;52.042;6.812;2022-12-18T08:48:46;45.10;;;19.80;;
31966;SDS011;18496;52.042;6.812;2022-12-18T08:50:56;36.20;;;17.48;;
31966;SDS011;18496;52.042;6.812;2022-12-18T08:53:01;27.98;;;13.95;;
31966;SDS011;18496;52.042;6.812;2022-12-18T08:55:05;37.13;;;16.60;;
31966;SDS011;18496;52.042;6.812;2022-12-18T08:57:10;34.88;;;14.32;;
31966;SDS011;18496;52.042;6.812;2022-12-18T08:59:13;27.25;;;13.38;;
31966;SDS011;18496;52.042;6.812;2022-12-18T09:01:17;49.38;;;17.88;;
31966;SDS011;18496;52.042;6.812;2022-12-18T09:03:21;32.88;;;13.93;;
31966;SDS011;18496;52.042;6.812;2022-12-18T09:05:25;33.15;;;14.25;;
31966;SDS011;18496;52.042;6.812;2022-12-18T09:07:29;25.25;;;12.75;;
31966;SDS011;18496;52.042;6.812;2022-12-18T09:09:32;33.28;;;12.80;;
31966;SDS011;18496;52.042;6.812;2022-12-18T09:11:36;28.70;;;12.77;;
31966;SDS011;18496;52.042;6.812;2022-12-18T09:13:40;33.25;;;12.95;;
31966;SDS011;18496;52.042;6.812;2022-12-18T09:15:44;27.55;;;13.05;;
31966;SDS011;18496;52.042;6.812;2022-12-18T09:17:52;28.63;;;12.50;;
31966;SDS011;18496;52.042;6.812;2022-12-18T09:19:57;25.88;;;12.40;;
31966;SDS011;18496;52.042;6.812;2022-12-18T09:22:00;22.58;;;11.07;;
31966;SDS011;18496;52.042;6.812;2022-12-18T09:24:04;25.00;;;12.13;;
31966;SDS011;18496;52.042;6.812;2022-12-18T09:26:08;24.27;;;11.25;;
31966;SDS011;18496;52.042;6.812;2022-12-18T09:28:13;23.83;;;11.38;;
31966;SDS011;18496;52.042;6.812;2022-12-18T09:30:18;25.10;;;11.32;;
31966;SDS011;18496;52.042;6.812;2022-12-18T09:32:22;25.27;;;10.18;;
31966;SDS011;18496;52.042;6.812;2022-12-18T09:34:25;22.85;;;10.25;;
31966;SDS011;18496;52.042;6.812;2022-12-18T09:36:29;24.55;;;10.85;;
31966;SDS011;18496;52.042;6.812;2022-12-18T09:38:33;23.88;;;9.70;;
31966;SDS011;18496;52.042;6.812;2022-12-18T09:40:44;24.02;;;10.38;;
31966;SDS011;18496;52.042;6.812;2022-12-18T09:42:56;24.33;;;11.50;;
31966;SDS011;18496;52.042;6.812;2022-12-18T09:45:03;22.55;;;10.07;;
31966;SDS011;18496;52.042;6.812;2022-12-18T09:47:15;17.55;;;9.70;;
31966;SDS011;18496;52.042;6.812;2022-12-18T09:49:29;19.00;;;8.88;;
31966;SDS011;18496;52.042;6.812;2022-12-18T09:51:37;28.15;;;9.45;;
31966;SDS011;18496;52.042;6.812;2022-12-18T09:53:47;20.33;;;9.20;;
31966;SDS011;18496;52.042;6.812;2022-12-18T09:55:58;20.83;;;8.85;;
31966;SDS011;18496;52.042;6.812;2022-12-18T09:58:11;15.40;;;8.02;;
31966;SDS011;18496;52.042;6.812;2022-12-18T10:00:36;21.20;;;9.77;;
31966;SDS011;18496;52.042;6.812;2022-12-18T10:02:40;16.42;;;8.07;;
31966;SDS011;18496;52.042;6.812;2022-12-18T10:04:43;20.55;;;9.82;;
31966;SDS011;18496;52.042;6.812;2022-12-18T10:07:09;21.70;;;7.85;;
31966;SDS011;18496;52.042;6.812;2022-12-18T10:13:52;20.02;;;8.82;;
31966;SDS011;18496;52.042;6.812;2022-12-18T10:16:19;16.70;;;8.68;;
31966;SDS011;18496;52.042;6.812;2022-12-18T10:26:04;19.08;;;8.15;;
31966;SDS011;18496;52.042;6.812;2022-12-18T10:28:13;20.65;;;8.82;;
31966;SDS011;18496;52.042;6.812;2022-12-18T10:30:19;23.02;;;10.00;;
31966;SDS011;18496;52.042;6.812;2022-12-18T10:32:26;21.70;;;8.40;;
31966;SDS011;18496;52.042;6.812;2022-12-18T10:34:31;22.08;;;9.65;;
31966;SDS011;18496;52.042;6.812;2022-12-18T10:36:35;18.15;;;9.05;;
31966;SDS011;18496;52.042;6.812;2022-12-18T10:38:38;19.77;;;9.27;;
31966;SDS011;18496;52.042;6.812;2022-12-18T10:40:50;18.75;;;8.35;;
31966;SDS011;18496;52.042;6.812;2022-12-18T10:45:27;20.50;;;8.73;;
31966;SDS011;18496;52.042;6.812;2022-12-18T10:47:30;20.48;;;8.68;;
31966;SDS011;18496;52.042;6.812;2022-12-18T10:49:36;21.60;;;9.43;;
31966;SDS011;18496;52.042;6.812;2022-12-18T10:51:45;17.67;;;7.97;;
31966;SDS011;18496;52.042;6.812;2022-12-18T10:54:04;18.20;;;8.90;;
31966;SDS011;18496;52.042;6.812;2022-12-18T10:56:16;26.38;;;8.75;;
31966;SDS011;18496;52.042;6.812;2022-12-18T11:00:35;22.05;;;8.73;;
31966;SDS011;18496;52.042;6.812;2022-12-18T11:02:39;15.68;;;7.43;;
31966;SDS011;18496;52.042;6.812;2022-12-18T11:04:50;16.33;;;8.82;;
31966;SDS011;18496;52.042;6.812;2022-12-18T11:11:23;17.58;;;8.00;;
31966;SDS011;18496;52.042;6.812;2022-12-18T11:13:28;12.10;;;7.22;;
31966;SDS011;18496;52.042;6.812;2022-12-18T11:15:34;17.52;;;7.68;;
31966;SDS011;18496;52.042;6.812;2022-12-18T11:17:37;17.85;;;7.50;;
31966;SDS011;18496;52.042;6.812;2022-12-18T11:19:42;14.82;;;7.35;;
31966;SDS011;18496;52.042;6.812;2022-12-18T11:21:46;19.30;;;7.25;;
31966;SDS011;18496;52.042;6.812;2022-12-18T11:23:50;16.10;;;7.45;;
31966;SDS011;18496;52.042;6.812;2022-12-18T11:25:56;12.38;;;7.07;;
31966;SDS011;18496;52.042;6.812;2022-12-18T11:30:30;27.80;;;8.32;;
31966;SDS011;18496;52.042;6.812;2022-12-18T11:32:38;22.05;;;8.80;;
31966;SDS011;18496;52.042;6.812;2022-12-18T11:34:48;20.42;;;8.13;;
31966;SDS011;18496;52.042;6.812;2022-12-18T11:36:56;23.55;;;8.48;;
31966;SDS011;18496;52.042;6.812;2022-12-18T11:39:07;21.35;;;8.55;;
31966;SDS011;18496;52.042;6.812;2022-12-18T11:48:38;18.17;;;7.53;;
31966;SDS011;18496;52.042;6.812;2022-12-18T11:50:53;27.50;;;9.77;;
31966;SDS011;18496;52.042;6.812;2022-12-18T11:52:58;23.10;;;9.65;;
31966;SDS011;18496;52.042;6.812;2022-12-18T11:55:07;24.58;;;9.30;;
31966;SDS011;18496;52.042;6.812;2022-12-18T11:57:21;29.48;;;10.40;;
31966;SDS011;18496;52.042;6.812;2022-12-18T12:02:02;32.13;;;9.57;;
31966;SDS011;18496;52.042;6.812;2022-12-18T12:22:56;26.75;;;9.68;;
31966;SDS011;18496;52.042;6.812;2022-12-18T12:25:31;29.90;;;8.70;;
31966;SDS011;18496;52.042;6.812;2022-12-18T12:27:46;24.30;;;8.82;;
31966;SDS011;18496;52.042;6.812;2022-12-18T12:39:28;17.35;;;8.15;;
31966;SDS011;18496;52.042;6.812;2022-12-18T12:41:35;19.17;;;9.10;;
31966;SDS011;18496;52.042;6.812;2022-12-18T12:44:05;20.08;;;8.27;;
31966;SDS011;18496;52.042;6.812;2022-12-18T12:46:13;12.95;;;7.13;;
31966;SDS011;18496;52.042;6.812;2022-12-18T12:48:32;15.70;;;6.50;;
31966;SDS011;18496;52.042;6.812;2022-12-18T12:50:47;15.57;;;6.75;;
31966;SDS011;18496;52.042;6.812;2022-12-18T12:52:53;14.95;;;7.38;;
31966;SDS011;18496;52.042;6.812;2022-12-18T12:54:59;15.77;;;7.85;;
31966;SDS011;18496;52.042;6.812;2022-12-18T12:57:07;18.40;;;8.63;;
31966;SDS011;18496;52.042;6.812;2022-12-18T13:01:40;14.55;;;7.40;;
31966;SDS011;18496;52.042;6.812;2022-12-18T13:06:19;17.45;;;7.80;;
31966;SDS011;18496;52.042;6.812;2022-12-18T13:08:31;15.82;;;7.30;;
31966;SDS011;18496;52.042;6.812;2022-12-18T13:10:54;14.38;;;7.10;;
31966;SDS011;18496;52.042;6.812;2022-12-18T13:13:19;17.65;;;8.13;;
31966;SDS011;18496;52.042;6.812;2022-12-18T13:17:39;15.05;;;7.03;;
31966;SDS011;18496;52.042;6.812;2022-12-18T13:19:43;21.08;;;7.50;;
31966;SDS011;18496;52.042;6.812;2022-12-18T13:21:52;12.70;;;7.00;;
31966;SDS011;18496;52.042;6.812;2022-12-18T13:24:14;21.02;;;8.45;;
31966;SDS011;18496;52.042;6.812;2022-12-18T13:30:43;14.95;;;6.88;;
31966;SDS011;18496;52.042;6.812;2022-12-18T13:32:50;13.80;;;6.75;;
31966;SDS011;18496;52.042;6.812;2022-12-18T13:39:36;21.67;;;7.35;;
31966;SDS011;18496;52.042;6.812;2022-12-18T13:41:40;15.68;;;7.43;;
31966;SDS011;18496;52.042;6.812;2022-12-18T13:43:51;17.67;;;7.47;;
31966;SDS011;18496;52.042;6.812;2022-12-18T13:46:01;19.65;;;7.85;;
31966;SDS011;18496;52.042;6.812;2022-12-18T13:48:17;17.45;;;7.72;;
31966;SDS011;18496;52.042;6.812;2022-12-18T13:50:24;14.10;;;7.43;;
31966;SDS011;18496;52.042;6.812;2022-12-18T13:52:28;14.93;;;7.18;;
31966;SDS011;18496;52.042;6.812;2022-12-18T13:54:40;17.17;;;7.55;;
31966;SDS011;18496;52.042;6.812;2022-12-18T13:56:45;18.42;;;7.38;;